Time;durP1;ratioP1;P1;durP2;ratioP2;P2;SDS_P1;SDS_P2;PMS_P1;PMS_P2;Temp;Humidity;BMP_temperature;BMP_pressure;BME280_temperature;BME280_humidity;BME280_pressure;Samples;Min_cycle;Max_cycle;Signal;HPM_P1;HPM_P2
2022/09/03 00:07:08;;;;;;;4.33;1.30;;;21.40;84.20;;;;;;7233871;81;26269;-58
2022/09/03 00:17:29;;;;;;;5.47;1.53;;;21.40;84.10;;;;;;7234774;81;26259;-59
2022/09/03 00:27:34;;;;;;;2.30;0.80;;;21.30;84.50;;;;;;7289729;80;26939;-59
2022/09/03 00:37:37;;;;;;;8.63;1.30;;;21.30;83.70;;;;;;7239420;81;26333;-59
2022/09/03 00:47:48;;;;;;;3.40;1.40;;;21.30;84.40;;;;;;7254446;80;26381;-58
2022/09/03 00:58:03;;;;;;;3.27;1.30;;;21.30;84.20;;;;;;7257958;80;26318;-58
2022/09/03 01:08:23;;;;;;;7.30;1.20;;;21.30;84.80;;;;;;7246449;80;26299;-58
2022/09/03 01:18:45;;;;;;;6.47;1.57;;;21.30;85.00;;;;;;7261614;80;26350;-58
2022/09/03 01:28:59;;;;;;;3.70;1.10;;;21.20;85.00;;;;;;7250502;80;26424;-59
2022/09/03 01:39:05;;;;;;;11.10;2.03;;;21.20;84.80;;;;;;7251654;80;26365;-58
2022/09/03 01:49:22;;;;;;;7.00;1.47;;;21.20;85.50;;;;;;7258245;80;26848;-58
2022/09/03 02:00:02;;;;;;;6.40;1.50;;;21.10;85.50;;;;;;7259244;80;26427;-58
2022/09/03 02:10:08;;;;;;;4.37;1.30;;;21.10;85.30;;;;;;7280292;80;26295;-58
2022/09/03 02:20:13;;;;;;;2.90;1.00;;;21.10;83.80;;;;;;7150191;81;26231;-58
2022/09/03 02:30:17;;;;;;;3.70;1.30;;;21.10;83.60;;;;;;7318726;80;26724;-58
2022/09/03 02:40:19;;;;;;;5.70;1.33;;;21.00;82.90;;;;;;7308052;81;26293;-58
2022/09/03 02:50:22;;;;;;;1.20;1.00;;;21.00;82.20;;;;;;7302610;80;26759;-58
2022/09/03 03:00:25;;;;;;;2.47;1.10;;;21.00;82.30;;;;;;7257217;80;26926;-58
2022/09/03 03:10:28;;;;;;;1.97;0.90;;;21.00;82.00;;;;;;7234205;80;26389;-58
2022/09/03 03:20:30;;;;;;;1.10;1.00;;;20.90;82.10;;;;;;7256067;80;26947;-57
2022/09/03 03:30:34;;;;;;;3.13;1.20;;;20.90;81.70;;;;;;7263458;80;26318;-59
2022/09/03 03:40:38;;;;;;;3.80;0.80;;;20.90;81.40;;;;;;7261402;80;26353;-59
2022/09/03 03:50:41;;;;;;;1.87;0.97;;;20.90;81.40;;;;;;7245880;80;26315;-58
2022/09/03 04:00:44;;;;;;;1.10;0.80;;;20.80;81.20;;;;;;7250412;80;26346;-59
2022/09/03 04:10:47;;;;;;;1.20;0.60;;;20.80;81.20;;;;;;7227215;80;26477;-58
2022/09/03 04:20:50;;;;;;;3.10;0.90;;;20.80;81.40;;;;;;7256751;80;26308;-60
2022/09/03 04:30:53;;;;;;;2.33;0.90;;;20.80;81.30;;;;;;7255612;80;26386;-60
2022/09/03 04:40:55;;;;;;;2.10;0.97;;;20.80;81.20;;;;;;7198638;81;26291;-58
2022/09/03 04:51:06;;;;;;;2.10;0.90;;;20.70;81.10;;;;;;7217188;81;26343;-60
2022/09/03 05:01:10;;;;;;;0.80;0.70;;;20.70;81.10;;;;;;7191575;81;26342;-60
2022/09/03 05:11:12;;;;;;;4.43;1.90;;;20.70;80.90;;;;;;7216916;80;26305;-59
2022/09/03 05:21:17;;;;;;;1.07;0.80;;;20.70;81.00;;;;;;7238800;80;26740;-58
2022/09/03 05:31:20;;;;;;;1.20;0.80;;;20.70;81.00;;;;;;7252484;80;26272;-59
2022/09/03 05:41:23;;;;;;;5.27;0.77;;;20.60;80.80;;;;;;7225575;80;26284;-59
2022/09/03 05:51:25;;;;;;;1.50;0.90;;;20.70;81.10;;;;;;7234759;80;26428;-58
2022/09/03 06:01:31;;;;;;;2.87;1.03;;;20.60;81.20;;;;;;7221752;80;26287;-58
2022/09/03 06:11:35;;;;;;;1.30;1.07;;;20.60;81.30;;;;;;7216060;80;26291;-58
2022/09/03 06:21:41;;;;;;;3.00;1.10;;;20.60;81.30;;;;;;7232139;80;26295;-59
2022/09/03 06:31:43;;;;;;;1.20;0.90;;;20.60;81.30;;;;;;7227503;80;26366;-61
2022/09/03 06:41:47;;;;;;;5.10;1.10;;;20.60;81.50;;;;;;7200998;80;26319;-57
2022/09/03 06:51:49;;;;;;;6.40;1.10;;;20.50;85.20;;;;;;7159118;81;26787;-57
2022/09/03 07:01:52;;;;;;;5.67;1.53;;;20.50;86.20;;;;;;7266394;80;26637;-59
2022/09/03 07:11:54;;;;;;;9.20;1.57;;;20.50;86.00;;;;;;7242169;80;26425;-59
2022/09/03 07:21:57;;;;;;;6.60;1.30;;;20.50;86.40;;;;;;7242835;80;26444;-59
2022/09/03 07:31:59;;;;;;;3.70;1.00;;;20.50;87.80;;;;;;7233872;80;26877;-59
2022/09/03 07:42:02;;;;;;;4.07;1.37;;;20.50;86.40;;;;;;7209456;80;26345;-59
2022/09/03 07:52:06;;;;;;;2.87;1.57;;;20.50;86.60;;;;;;7262498;80;26378;-59
2022/09/03 08:02:08;;;;;;;3.57;1.17;;;20.50;87.90;;;;;;7256749;80;26398;-59
2022/09/03 08:12:11;;;;;;;3.50;0.90;;;20.50;88.50;;;;;;7249413;80;26383;-59
2022/09/03 08:22:13;;;;;;;2.60;1.33;;;20.40;89.10;;;;;;7278382;80;26344;-59
2022/09/03 08:32:16;;;;;;;6.40;1.40;;;20.50;88.30;;;;;;7330879;80;26867;-58
2022/09/03 08:42:30;;;;;;;2.93;1.03;;;20.10;90.60;;;;;;7304421;80;26417;-59
2022/09/03 08:52:59;;;;;;;2.93;1.33;;;20.30;90.10;;;;;;7245523;81;26269;-58
2022/09/03 09:03:13;;;;;;;2.37;1.30;;;20.10;92.20;;;;;;7289870;80;26347;-59
2022/09/03 09:13:34;;;;;;;2.97;1.30;;;20.10;92.50;;;;;;7291155;80;26375;-59
2022/09/03 09:23:39;;;;;;;4.07;1.47;;;20.20;92.70;;;;;;7293895;80;26503;-58
2022/09/03 09:33:42;;;;;;;5.57;1.50;;;20.10;93.20;;;;;;7291213;80;26275;-58
2022/09/03 09:43:49;;;;;;;18.27;3.00;;;20.00;94.10;;;;;;7297647;80;26275;-58
2022/09/03 09:54:04;;;;;;;38.10;3.70;;;20.00;97.80;;;;;;7289890;80;26263;-58
2022/09/03 10:04:13;;;;;;;8.90;2.50;;;20.10;99.90;;;;;;7295941;80;26279;-59
2022/09/03 10:14:29;;;;;;;3.93;1.80;;;20.20;99.10;;;;;;7257666;81;26256;-58
2022/09/03 10:24:58;;;;;;;5.43;1.70;;;20.20;98.50;;;;;;7276816;80;26422;-58
2022/09/03 10:35:09;;;;;;;3.07;2.10;;;20.20;98.50;;;;;;7256847;80;26334;-58
2022/09/03 10:45:23;;;;;;;4.83;2.20;;;20.20;98.50;;;;;;7266250;80;26298;-59
2022/09/03 10:55:37;;;;;;;5.73;1.60;;;20.20;98.80;;;;;;7261913;80;26325;-59
2022/09/03 11:05:44;;;;;;;6.87;2.00;;;20.10;99.40;;;;;;7251994;80;26280;-59
2022/09/03 11:16:01;;;;;;;3.60;1.67;;;20.10;99.50;;;;;;7249096;81;26288;-59
2022/09/03 11:26:11;;;;;;;6.00;1.40;;;20.10;99.90;;;;;;7252013;81;26272;-61
2022/09/03 11:36:15;;;;;;;4.07;1.77;;;20.20;99.90;;;;;;7256931;81;26346;-58
2022/09/03 11:46:26;;;;;;;3.57;1.70;;;20.30;99.90;;;;;;7251517;80;26257;-59
2022/09/03 11:56:31;;;;;;;49.87;4.67;;;20.30;99.90;;;;;;7256075;80;26325;-59
2022/09/03 12:06:40;;;;;;;33.73;3.40;;;20.40;99.10;;;;;;7245502;80;26832;-59
2022/09/03 12:16:48;;;;;;;15.57;2.57;;;20.50;99.10;;;;;;7243275;80;26806;-59
2022/09/03 12:26:51;;;;;;;6.60;2.23;;;20.50;98.40;;;;;;7241999;80;26263;-61
2022/09/03 12:36:54;;;;;;;4.67;1.77;;;20.50;99.90;;;;;;7241779;80;26718;-61
2022/09/03 12:47:05;;;;;;;8.27;1.60;;;20.50;98.80;;;;;;7270211;81;26253;-62
2022/09/03 12:57:09;;;;;;;4.13;2.00;;;20.60;98.90;;;;;;7254788;81;26313;-60
2022/09/03 13:07:23;;;;;;;5.03;2.13;;;20.60;98.80;;;;;;7271675;81;26378;-58
2022/09/03 13:17:46;;;;;;;3.57;1.93;;;20.70;99.30;;;;;;7275285;80;26938;-61
2022/09/03 13:28:08;;;;;;;2.80;1.90;;;20.70;99.30;;;;;;7275506;80;26726;-61
2022/09/03 13:38:38;;;;;;;5.07;2.40;;;20.70;98.90;;;;;;7287168;80;26307;-58
2022/09/03 13:59:19;;;;;;;5.47;1.83;;;20.80;99.90;;;;;;7255696;80;26317;-61
2022/09/03 14:09:32;;;;;;;5.67;1.97;;;20.80;99.30;;;;;;7239104;80;26405;-58
2022/09/03 14:19:50;;;;;;;3.53;1.77;;;20.80;99.60;;;;;;7252834;80;26939;-58
2022/09/03 14:30:06;;;;;;;3.77;2.30;;;20.80;99.90;;;;;;7252838;80;26398;-60
2022/09/03 14:40:12;;;;;;;5.80;2.00;;;20.90;99.90;;;;;;7263197;80;26370;-60
2022/09/03 14:50:23;;;;;;;6.83;1.87;;;21.00;99.90;;;;;;7269749;80;26396;-60
2022/09/03 15:00:34;;;;;;;3.53;2.00;;;21.00;99.90;;;;;;7272774;80;26860;-59
2022/09/03 15:10:40;;;;;;;3.03;1.80;;;21.00;99.90;;;;;;7231456;81;26412;-60
2022/09/03 15:20:51;;;;;;;3.40;2.10;;;21.00;99.90;;;;;;7255429;80;26363;-58
2022/09/03 15:31:12;;;;;;;3.50;1.87;;;21.10;99.90;;;;;;7230499;81;26348;-60
2022/09/03 15:41:23;;;;;;;2.50;1.57;;;21.10;99.90;;;;;;7247156;81;26317;-59
2022/09/03 15:51:34;;;;;;;3.23;2.00;;;21.10;99.90;;;;;;7239962;81;26483;-57
2022/09/03 16:01:45;;;;;;;4.90;2.17;;;21.10;99.90;;;;;;7255912;81;26392;-57
2022/09/03 16:12:00;;;;;;;2.33;2.13;;;21.10;99.90;;;;;;7239410;81;26869;-60
2022/09/03 16:22:06;;;;;;;3.50;2.10;;;21.10;99.90;;;;;;7246925;81;26874;-60
2022/09/03 16:32:15;;;;;;;4.40;2.20;;;21.10;99.90;;;;;;7253761;81;26369;-59
2022/09/03 16:42:41;;;;;;;2.53;2.17;;;21.20;99.90;;;;;;7257167;81;26283;-60
2022/09/03 16:53:08;;;;;;;7.57;3.00;;;21.20;99.90;;;;;;7252847;81;27054;-59
2022/09/03 17:03:23;;;;;;;16.73;7.60;;;21.10;99.90;;;;;;7223775;81;26833;-58
2022/09/03 17:13:51;;;;;;;24.70;8.13;;;21.20;99.90;;;;;;7259664;81;26307;-58
2022/09/03 17:24:03;;;;;;;12.33;6.30;;;21.20;99.90;;;;;;7240408;81;26285;-59
2022/09/03 17:34:41;;;;;;;15.50;5.10;;;21.20;99.90;;;;;;7252232;80;26312;-60
2022/09/03 17:45:22;;;;;;;12.70;4.43;;;21.20;99.90;;;;;;7259046;81;26371;-60
2022/09/03 17:55:27;;;;;;;15.90;4.47;;;21.20;99.90;;;;;;7262467;81;26264;-60
2022/09/03 18:05:36;;;;;;;8.13;3.03;;;21.30;99.90;;;;;;7267648;81;26252;-61
2022/09/03 18:15:50;;;;;;;4.97;2.87;;;21.30;99.90;;;;;;7236794;81;26310;-61
2022/09/03 20:11:20;;;;;;;6.17;2.80;;;21.20;99.90;;;;;;7285716;80;26320;-59
2022/09/03 20:21:43;;;;;;;1.97;1.27;;;21.20;99.90;;;;;;7238709;80;26273;-59
2022/09/03 20:31:52;;;;;;;5.70;1.37;;;21.20;99.90;;;;;;7212648;80;26832;-59
2022/09/03 20:42:12;;;;;;;3.77;1.43;;;21.10;99.90;;;;;;7231008;80;26363;-60
2022/09/03 20:52:30;;;;;;;1.77;1.00;;;21.10;99.90;;;;;;7209503;81;26271;-60
2022/09/03 21:03:02;;;;;;;1.67;1.00;;;21.10;99.90;;;;;;7175361;81;26283;-58
2022/09/03 21:13:32;;;;;;;1.73;1.37;;;21.10;99.90;;;;;;7214735;81;26273;-58
2022/09/03 21:23:37;;;;;;;1.10;1.00;;;21.10;99.80;;;;;;7291225;80;26286;-59
2022/09/03 21:33:41;;;;;;;1.53;1.30;;;21.00;99.90;;;;;;7162912;82;26785;-59
2022/09/03 21:43:49;;;;;;;1.23;0.97;;;21.00;99.60;;;;;;7227673;81;26291;-59
2022/09/03 21:54:01;;;;;;;1.53;1.13;;;21.00;99.40;;;;;;7233341;81;26264;-60
2022/09/03 22:04:03;;;;;;;1.30;1.20;;;21.00;99.50;;;;;;7234577;81;26339;-60
2022/09/03 22:14:23;;;;;;;1.30;0.93;;;21.00;99.20;;;;;;7234659;81;26296;-59
2022/09/03 22:24:40;;;;;;;1.27;1.10;;;20.90;99.30;;;;;;7245783;80;26371;-59
2022/09/03 22:34:57;;;;;;;2.67;1.43;;;20.90;99.10;;;;;;7230206;80;26746;-58
2022/09/03 22:45:09;;;;;;;2.20;1.40;;;20.90;99.10;;;;;;7235409;81;26275;-57
2022/09/03 22:55:24;;;;;;;4.07;1.90;;;20.90;99.90;;;;;;7236127;81;26357;-59
2022/09/03 23:05:35;;;;;;;2.50;1.80;;;20.90;99.90;;;;;;7239599;81;26252;-59
2022/09/03 23:15:40;;;;;;;3.67;1.73;;;20.90;99.90;;;;;;7232153;81;26326;-59
2022/09/03 23:25:49;;;;;;;6.60;1.70;;;20.80;99.90;;;;;;7245670;81;26819;-58
2022/09/03 23:35:54;;;;;;;1.50;1.40;;;20.80;99.90;;;;;;7249365;80;26276;-58
2022/09/03 23:46:03;;;;;;;2.10;1.50;;;20.80;99.40;;;;;;7247162;81;26260;-59
2022/09/03 23:56:35;;;;;;;4.73;1.40;;;20.80;99.30;;;;;;7234936;81;26320;-59
